createdAt,value
2018-04-07T00:00:15.233Z,12.30
2018-04-07T00:01:15.228Z,11.50
2018-04-07T00:02:15.223Z,11.30
2018-04-07T00:03:15.216Z,12.00
2018-04-07T00:04:15.211Z,11.70
2018-04-07T00:05:15.206Z,12.30
2018-04-07T00:06:15.202Z,10.80
2018-04-07T00:07:15.195Z,11.90
2018-04-07T00:08:15.190Z,10.50
2018-04-07T00:09:15.185Z,12.10
2018-04-07T00:10:15.181Z,11.60
2018-04-07T00:11:15.174Z,12.00
2018-04-07T00:12:15.171Z,11.10
2018-04-07T00:13:15.202Z,11.80
2018-04-07T00:14:15.160Z,12.20
2018-04-07T00:15:15.155Z,11.50
2018-04-07T00:16:15.148Z,10.90
2018-04-07T00:17:15.142Z,12.90
2018-04-07T00:18:15.138Z,11.10
2018-04-07T00:19:15.130Z,12.90
2018-04-07T00:20:15.127Z,11.80
2018-04-07T00:21:15.121Z,11.10
2018-04-07T00:22:15.115Z,12.30
2018-04-07T00:23:15.110Z,10.90
2018-04-07T00:24:15.104Z,12.90
2018-04-07T00:25:15.099Z,11.30
2018-04-07T00:26:15.095Z,11.60
2018-04-07T00:27:15.089Z,12.20
2018-04-07T00:28:15.085Z,10.60
2018-04-07T00:29:15.079Z,12.20
2018-04-07T00:30:15.074Z,11.40
2018-04-07T00:31:15.067Z,12.20
2018-04-07T00:32:15.062Z,12.70
2018-04-07T00:33:15.057Z,11.70
2018-04-07T00:34:15.050Z,12.50
2018-04-07T00:35:15.046Z,11.60
2018-04-07T00:36:15.040Z,11.40
2018-04-07T00:37:15.034Z,10.60
2018-04-07T00:38:15.030Z,11.30
2018-04-07T00:39:15.023Z,9.30
2018-04-07T00:40:15.018Z,10.80
2018-04-07T00:41:15.013Z,11.20
2018-04-07T00:42:15.007Z,11.30
2018-04-07T00:43:15.001Z,11.80
2018-04-07T00:44:14.997Z,11.90
2018-04-07T00:45:15.039Z,11.70
2018-04-07T00:46:14.986Z,11.00
2018-04-07T00:47:14.979Z,10.90
2018-04-07T00:48:14.974Z,11.30
2018-04-07T00:49:14.972Z,9.90
2018-04-07T00:50:14.965Z,10.80
2018-04-07T00:51:14.958Z,10.20
2018-04-07T00:52:14.952Z,10.30
2018-04-07T00:53:14.947Z,10.90
2018-04-07T00:54:14.942Z,10.90
2018-04-07T00:55:14.935Z,10.80
2018-04-07T00:56:14.931Z,9.90
2018-04-07T00:57:14.925Z,11.00
2018-04-07T00:58:14.922Z,12.30
2018-04-07T00:59:14.921Z,10.40
2018-04-07T01:00:14.910Z,11.60
2018-04-07T01:01:14.904Z,10.60
2018-04-07T01:02:14.899Z,11.70
2018-04-07T01:03:14.892Z,11.10
2018-04-07T01:04:14.887Z,12.40
2018-04-07T01:05:14.881Z,10.00
2018-04-07T01:06:14.878Z,11.60
2018-04-07T01:07:14.871Z,10.30
2018-04-07T01:08:14.865Z,10.90
2018-04-07T01:09:14.861Z,12.00
2018-04-07T01:10:14.855Z,12.10
2018-04-07T01:11:14.848Z,11.40
2018-04-07T01:12:14.843Z,11.70
2018-04-07T01:13:14.839Z,12.20
2018-04-07T01:14:14.832Z,10.90
2018-04-07T01:15:14.827Z,10.70
2018-04-07T01:16:14.821Z,10.80
2018-04-07T01:17:14.815Z,11.30
2018-04-07T01:18:14.810Z,11.80
2018-04-07T01:19:14.805Z,10.90
2018-04-07T01:20:14.798Z,11.40
2018-04-07T01:21:14.793Z,11.40
2018-04-07T01:22:14.789Z,10.90
2018-04-07T01:23:14.782Z,12.20
2018-04-07T01:24:14.777Z,12.30
2018-04-07T01:25:14.771Z,12.60
2018-04-07T01:26:14.766Z,11.60
2018-04-07T01:27:14.761Z,11.10
2018-04-07T01:28:14.754Z,11.40
2018-04-07T01:29:14.750Z,11.30
2018-04-07T01:30:14.743Z,11.90
2018-04-07T01:31:14.737Z,10.20
2018-04-07T01:32:14.732Z,11.00
2018-04-07T01:33:14.725Z,12.30
2018-04-07T01:34:14.722Z,10.80
2018-04-07T01:35:14.714Z,12.40
2018-04-07T01:36:14.709Z,12.20
2018-04-07T01:37:14.704Z,11.70
2018-04-07T01:38:14.700Z,11.30
2018-04-07T01:39:14.692Z,11.60
2018-04-07T01:40:14.688Z,12.20
2018-04-07T01:41:14.682Z,11.80
2018-04-07T01:42:14.677Z,11.80
2018-04-07T01:43:14.670Z,11.50
2018-04-07T01:44:14.665Z,12.10
2018-04-07T01:45:14.660Z,12.40
2018-04-07T01:46:14.653Z,10.90
2018-04-07T01:47:14.652Z,11.70
2018-04-07T01:48:14.641Z,11.00
2018-04-07T01:49:14.635Z,10.10
2018-04-07T01:50:14.630Z,11.40
2018-04-07T01:51:14.624Z,12.10
2018-04-07T01:52:14.619Z,12.50
2018-04-07T01:53:14.612Z,11.20
2018-04-07T01:54:14.609Z,11.00
2018-04-07T01:55:14.603Z,12.20
2018-04-07T01:56:14.596Z,10.80
2018-04-07T01:57:14.590Z,10.00
2018-04-07T01:58:14.589Z,12.70
2018-04-07T01:59:14.580Z,11.30
2018-04-07T02:00:14.574Z,11.20
2018-04-07T02:01:14.568Z,12.20
2018-04-07T02:02:14.562Z,9.70
2018-04-07T02:03:14.556Z,12.20
2018-04-07T02:04:14.550Z,12.70
2018-04-07T02:05:14.544Z,11.60
2018-04-07T02:06:14.540Z,11.40
2018-04-07T02:07:14.533Z,12.50
2018-04-07T02:08:14.527Z,12.30
2018-04-07T02:09:14.522Z,10.90
2018-04-07T02:10:14.516Z,11.80
2018-04-07T02:11:14.530Z,12.00
2018-04-07T02:12:14.503Z,11.70
2018-04-07T02:13:14.498Z,11.90
2018-04-07T02:14:14.492Z,11.30
2018-04-07T02:15:14.486Z,12.60
2018-04-07T02:16:14.480Z,12.30
2018-04-07T02:17:14.474Z,11.20
2018-04-07T02:18:14.473Z,12.10
2018-04-07T02:19:14.463Z,12.20
2018-04-07T02:20:14.458Z,12.30
2018-04-07T02:21:14.453Z,11.80
2018-04-07T02:22:14.448Z,11.60
2018-04-07T02:23:14.441Z,11.70
2018-04-07T02:24:14.435Z,10.70
2018-04-07T02:25:14.432Z,11.80
2018-04-07T02:26:14.426Z,11.90
2018-04-07T02:27:14.416Z,11.80
2018-04-07T02:28:14.411Z,12.00
2018-04-07T02:29:14.406Z,10.70
2018-04-07T02:30:14.400Z,12.00
2018-04-07T02:31:14.394Z,12.60
2018-04-07T02:32:14.389Z,10.80
2018-04-07T02:33:14.386Z,12.60
2018-04-07T02:34:14.376Z,12.00
2018-04-07T02:35:14.372Z,12.20
2018-04-07T02:36:14.373Z,11.20
2018-04-07T02:37:14.374Z,11.00
2018-04-07T02:38:14.356Z,11.20
2018-04-07T02:39:14.348Z,11.90
2018-04-07T02:40:14.341Z,11.90
2018-04-07T02:41:14.338Z,12.60
2018-04-07T02:42:14.331Z,12.00
2018-04-07T02:43:14.325Z,11.80
2018-04-07T02:44:14.318Z,12.30
2018-04-07T02:45:14.314Z,11.90
2018-04-07T02:46:14.306Z,10.10
2018-04-07T02:47:14.300Z,11.30
2018-04-07T02:48:14.295Z,11.80
2018-04-07T02:49:14.289Z,12.40
2018-04-07T02:50:14.286Z,11.80
2018-04-07T02:51:14.277Z,11.20
2018-04-07T02:52:14.272Z,11.80
2018-04-07T02:53:14.267Z,11.00
2018-04-07T02:54:14.263Z,11.40
2018-04-07T02:55:14.255Z,11.90
2018-04-07T02:56:14.248Z,13.00
2018-04-07T02:57:14.243Z,11.20
2018-04-07T02:58:14.236Z,10.40
2018-04-07T02:59:14.228Z,11.30
2018-04-07T03:00:14.222Z,11.80
2018-04-07T03:01:14.218Z,11.70
2018-04-07T03:02:14.213Z,12.20
2018-04-07T03:03:14.210Z,11.80
2018-04-07T03:04:14.198Z,12.70
2018-04-07T03:05:14.202Z,11.10
2018-04-07T03:06:14.189Z,12.80
2018-04-07T03:07:14.182Z,11.40
2018-04-07T03:08:14.176Z,11.90
2018-04-07T03:09:14.170Z,11.40
2018-04-07T03:10:14.165Z,11.10
2018-04-07T03:11:14.157Z,12.70
2018-04-07T03:12:14.151Z,12.90
2018-04-07T03:13:14.145Z,12.80
2018-04-07T03:14:14.140Z,13.00
2018-04-07T03:15:14.134Z,12.50
2018-04-07T03:16:14.129Z,12.60
2018-04-07T03:17:14.122Z,13.00
2018-04-07T03:18:14.116Z,12.20
2018-04-07T03:19:14.113Z,12.50
2018-04-07T03:20:14.104Z,12.20
2018-04-07T03:21:14.098Z,12.00
2018-04-07T03:22:14.090Z,12.50
2018-04-07T03:23:14.087Z,12.10
2018-04-07T03:24:14.078Z,11.10
2018-04-07T03:25:14.073Z,12.80
2018-04-07T03:26:14.067Z,12.10
2018-04-07T03:27:14.060Z,12.10
2018-04-07T03:28:14.054Z,11.20
2018-04-07T03:29:14.048Z,11.30
2018-04-07T03:30:14.045Z,12.80
2018-04-07T03:31:14.040Z,11.60
2018-04-07T03:32:14.030Z,12.60
2018-04-07T03:33:14.025Z,13.10
2018-04-07T03:34:14.019Z,12.20
2018-04-07T03:35:14.011Z,13.10
2018-04-07T03:36:14.007Z,12.40
2018-04-07T03:37:14.001Z,13.40
2018-04-07T03:38:13.994Z,12.40
2018-04-07T03:39:13.987Z,11.80
2018-04-07T03:40:13.981Z,12.90
2018-04-07T03:41:13.975Z,12.10
2018-04-07T03:42:13.969Z,12.70
2018-04-07T03:43:13.962Z,12.70
2018-04-07T03:44:13.959Z,12.60
2018-04-07T03:45:13.956Z,12.20
2018-04-07T03:46:13.948Z,12.80
2018-04-07T03:47:13.941Z,12.90
2018-04-07T03:48:13.933Z,13.60
2018-04-07T03:49:13.926Z,13.20
2018-04-07T03:50:13.921Z,12.50
2018-04-07T03:51:13.913Z,12.10
2018-04-07T03:52:13.911Z,12.10
2018-04-07T03:53:13.903Z,13.00
2018-04-07T03:54:13.896Z,11.90
2018-04-07T03:55:13.888Z,13.50
2018-04-07T03:56:13.885Z,13.30
2018-04-07T03:57:13.877Z,12.60
2018-04-07T03:58:13.871Z,13.10
2018-04-07T03:59:13.863Z,12.40
2018-04-07T04:00:13.858Z,12.40
2018-04-07T04:01:13.855Z,12.60
2018-04-07T04:02:13.847Z,12.10
2018-04-07T04:03:13.839Z,13.80
2018-04-07T04:04:13.835Z,14.20
2018-04-07T04:05:13.827Z,13.10
2018-04-07T04:06:13.823Z,14.20
2018-04-07T04:07:13.819Z,13.10
2018-04-07T04:08:13.810Z,12.00
2018-04-07T04:09:13.802Z,14.10
2018-04-07T04:10:13.800Z,13.70
2018-04-07T04:11:13.791Z,14.10
2018-04-07T04:12:13.783Z,14.10
2018-04-07T04:13:13.776Z,14.20
2018-04-07T04:14:13.773Z,12.90
2018-04-07T04:15:13.766Z,13.90
2018-04-07T04:16:13.759Z,12.20
2018-04-07T04:17:13.754Z,13.10
2018-04-07T04:18:13.746Z,14.00
2018-04-07T04:19:13.740Z,13.50
2018-04-07T04:20:13.734Z,13.50
2018-04-07T04:21:13.727Z,13.70
2018-04-07T04:22:13.722Z,13.20
2018-04-07T04:23:13.716Z,12.70
2018-04-07T04:24:13.708Z,13.40
2018-04-07T04:25:13.701Z,12.50
2018-04-07T04:26:13.696Z,13.10
2018-04-07T04:27:13.689Z,13.40
2018-04-07T04:28:13.683Z,13.70
2018-04-07T04:29:13.676Z,13.60
2018-04-07T04:30:13.672Z,13.70
2018-04-07T04:31:13.667Z,12.30
2018-04-07T04:32:13.666Z,14.60
2018-04-07T04:33:13.651Z,12.70
2018-04-07T04:34:13.644Z,12.90
2018-04-07T04:35:13.637Z,13.10
2018-04-07T04:36:13.631Z,14.00
2018-04-07T04:37:13.625Z,14.50
2018-04-07T04:38:13.619Z,14.20
2018-04-07T04:39:13.612Z,13.10
2018-04-07T04:40:13.605Z,14.70
2018-04-07T04:41:13.599Z,13.40
2018-04-07T04:42:13.594Z,14.70
2018-04-07T04:43:13.590Z,15.20
2018-04-07T04:44:13.584Z,13.30
2018-04-07T04:45:13.576Z,13.90
2018-04-07T04:46:13.573Z,14.20
2018-04-07T04:47:13.561Z,14.40
2018-04-07T04:48:13.556Z,13.80
2018-04-07T04:49:13.551Z,14.60
2018-04-07T04:50:13.542Z,14.10
2018-04-07T04:51:13.537Z,14.30
2018-04-07T04:52:13.530Z,14.20
2018-04-07T04:53:13.523Z,13.10
2018-04-07T04:54:13.516Z,14.20
2018-04-07T04:55:13.513Z,15.10
2018-04-07T04:56:13.504Z,14.50
2018-04-07T04:57:13.497Z,14.70
2018-04-07T04:58:13.492Z,13.90
2018-04-07T04:59:13.484Z,14.80
2018-04-07T05:00:13.478Z,14.60
2018-04-07T05:01:13.472Z,14.90
2018-04-07T05:02:13.466Z,14.10
2018-04-07T05:03:13.460Z,15.10
2018-04-07T05:04:13.454Z,14.20
2018-04-07T05:05:13.450Z,15.10
2018-04-07T05:06:13.441Z,15.20
2018-04-07T05:07:13.434Z,14.40
2018-04-07T05:08:13.427Z,15.60
2018-04-07T05:09:13.421Z,15.00
2018-04-07T05:10:13.415Z,15.40
2018-04-07T05:11:13.408Z,14.60
2018-04-07T05:12:13.402Z,14.00
2018-04-07T05:13:13.396Z,15.50
2018-04-07T05:14:13.390Z,14.00
2018-04-07T05:15:13.383Z,14.40
2018-04-07T05:16:13.377Z,15.70
2018-04-07T05:17:13.374Z,14.70
2018-04-07T05:18:13.364Z,13.90
2018-04-07T05:19:13.357Z,15.00
2018-04-07T05:20:13.351Z,14.00
2018-04-07T05:21:13.346Z,14.60
2018-04-07T05:22:13.343Z,19.00
2018-04-07T05:23:13.334Z,14.90
2018-04-07T05:24:13.328Z,14.80
2018-04-07T05:25:13.322Z,14.70
2018-04-07T05:26:13.316Z,15.10
2018-04-07T05:27:13.307Z,15.90
2018-04-07T05:28:13.298Z,14.90
2018-04-07T05:29:13.293Z,14.70
2018-04-07T05:30:13.287Z,14.90
2018-04-07T05:31:13.288Z,15.10
2018-04-07T05:32:13.278Z,14.60
2018-04-07T05:33:13.273Z,15.40
2018-04-07T05:34:13.267Z,14.20
2018-04-07T05:35:13.264Z,13.60
2018-04-07T05:36:13.254Z,13.20
2018-04-07T05:37:13.246Z,13.90
2018-04-07T05:38:13.242Z,13.90
2018-04-07T05:39:13.235Z,16.10
2018-04-07T05:40:13.231Z,15.90
2018-04-07T05:41:13.227Z,16.20
2018-04-07T05:42:13.221Z,15.40
2018-04-07T05:43:13.216Z,16.60
2018-04-07T05:44:13.212Z,15.60
2018-04-07T05:45:13.206Z,15.60
2018-04-07T05:46:13.206Z,15.50
2018-04-07T05:47:13.200Z,15.60
2018-04-07T05:48:13.192Z,15.40
2018-04-07T05:49:13.188Z,15.60
2018-04-07T05:50:13.186Z,15.90
2018-04-07T05:51:13.182Z,15.50
2018-04-07T05:52:13.182Z,15.90
2018-04-07T05:53:13.179Z,16.60
2018-04-07T05:54:13.180Z,17.40
2018-04-07T05:55:13.170Z,17.10
2018-04-07T05:56:13.167Z,16.70
2018-04-07T05:57:13.163Z,17.30
2018-04-07T05:58:13.161Z,16.50
2018-04-07T05:59:13.162Z,17.80
2018-04-07T06:00:13.156Z,16.10
2018-04-07T06:01:13.155Z,17.00
2018-04-07T06:02:13.158Z,16.50
2018-04-07T06:03:13.150Z,16.80
2018-04-07T06:04:13.152Z,17.20
2018-04-07T06:05:13.151Z,16.30
2018-04-07T06:06:13.149Z,17.60
2018-04-07T06:07:13.147Z,17.00
2018-04-07T06:08:13.141Z,16.40
2018-04-07T06:09:13.141Z,16.50
2018-04-07T06:10:13.140Z,16.20
2018-04-07T06:11:13.139Z,16.30
2018-04-07T06:12:13.137Z,16.70
2018-04-07T06:13:13.138Z,16.20
2018-04-07T06:14:13.137Z,16.40
2018-04-07T06:15:13.135Z,16.50
2018-04-07T06:16:13.135Z,16.70
2018-04-07T06:17:13.135Z,16.80
2018-04-07T06:18:13.138Z,16.40
2018-04-07T06:19:13.137Z,16.40
2018-04-07T06:20:13.140Z,16.60
2018-04-07T06:21:13.133Z,16.10
2018-04-07T06:22:13.134Z,16.30
2018-04-07T06:23:13.137Z,17.10
2018-04-07T06:24:13.135Z,16.80
2018-04-07T06:25:13.135Z,16.70
2018-04-07T06:26:13.140Z,16.50
2018-04-07T06:27:13.140Z,16.90
2018-04-07T06:28:13.137Z,16.30
2018-04-07T06:29:13.138Z,16.50
2018-04-07T06:30:13.143Z,17.10
2018-04-07T06:31:13.145Z,16.70
2018-04-07T06:32:13.141Z,16.70
2018-04-07T06:33:13.143Z,16.40
2018-04-07T06:34:13.146Z,16.20
2018-04-07T06:35:13.146Z,17.30
2018-04-07T06:36:13.149Z,16.90
2018-04-07T06:37:13.150Z,16.30
2018-04-07T06:38:13.154Z,16.30
2018-04-07T06:39:13.154Z,16.70
2018-04-07T06:40:13.158Z,17.10
2018-04-07T06:41:13.159Z,16.40
2018-04-07T06:42:13.161Z,16.30
2018-04-07T06:43:13.162Z,17.00
2018-04-07T06:44:13.168Z,16.20
2018-04-07T06:45:13.171Z,16.10
2018-04-07T06:46:13.172Z,16.90
2018-04-07T06:47:13.172Z,15.80
2018-04-07T06:48:13.182Z,16.40
2018-04-07T06:49:13.184Z,15.80
2018-04-07T06:50:13.182Z,15.60
2018-04-07T06:51:13.184Z,15.50
2018-04-07T06:52:13.188Z,16.00
2018-04-07T06:53:13.192Z,16.10
2018-04-07T06:54:13.196Z,16.10
2018-04-07T06:55:13.197Z,14.80
2018-04-07T06:56:13.202Z,16.00
2018-04-07T06:57:13.205Z,15.70
2018-04-07T06:58:13.214Z,15.20
2018-04-07T06:59:13.219Z,15.50
2018-04-07T07:00:13.219Z,16.50
2018-04-07T07:01:13.222Z,16.50
2018-04-07T07:02:13.231Z,16.20
2018-04-07T07:03:13.236Z,17.10
2018-04-07T07:04:13.236Z,16.10
2018-04-07T07:05:13.241Z,16.00
2018-04-07T07:06:13.247Z,15.90
2018-04-07T07:07:13.251Z,16.50
2018-04-07T07:08:13.257Z,16.30
2018-04-07T07:09:13.262Z,15.40
2018-04-07T07:10:13.267Z,15.40
2018-04-07T07:11:13.271Z,16.10
2018-04-07T07:12:13.277Z,16.30
2018-04-07T07:13:13.282Z,16.30
2018-04-07T07:14:13.287Z,15.70
2018-04-07T07:15:13.293Z,15.40
2018-04-07T07:16:13.304Z,15.90
2018-04-07T07:17:13.308Z,15.80
2018-04-07T07:18:13.310Z,16.10
2018-04-07T07:19:13.315Z,16.40
2018-04-07T07:20:13.324Z,16.60
2018-04-07T07:21:13.331Z,16.20
2018-04-07T07:22:13.332Z,16.90
2018-04-07T07:23:13.338Z,17.00
2018-04-07T07:24:13.389Z,16.10
2018-04-07T07:25:13.351Z,16.20
2018-04-07T07:26:13.357Z,15.40
2018-04-07T07:27:13.361Z,15.40
2018-04-07T07:28:13.370Z,15.00
2018-04-07T07:29:13.376Z,15.40
2018-04-07T07:30:13.386Z,15.30
2018-04-07T07:31:13.441Z,14.80
2018-04-07T07:32:13.397Z,15.80
2018-04-07T07:33:13.401Z,15.20
2018-04-07T07:34:13.411Z,14.10
2018-04-07T07:35:13.417Z,15.20
2018-04-07T07:36:13.421Z,15.20
2018-04-07T07:37:13.429Z,15.30
2018-04-07T07:38:13.435Z,15.00
2018-04-07T07:39:13.442Z,14.90
2018-04-07T07:40:13.450Z,15.00
2018-04-07T07:41:13.457Z,14.40
2018-04-07T07:42:13.465Z,14.40
2018-04-07T07:43:13.471Z,14.60
2018-04-07T07:44:13.480Z,14.60
2018-04-07T07:45:13.487Z,14.50
2018-04-07T07:46:13.495Z,14.00
2018-04-07T07:47:13.501Z,14.10
2018-04-07T07:48:13.513Z,14.10
2018-04-07T07:49:13.521Z,14.70
2018-04-07T07:50:13.527Z,13.80
2018-04-07T07:51:13.533Z,13.80
2018-04-07T07:52:13.546Z,13.60
2018-04-07T07:53:13.555Z,14.50
2018-04-07T07:54:13.562Z,13.80
2018-04-07T07:55:13.566Z,12.10
2018-04-07T07:56:13.575Z,13.60
2018-04-07T07:57:13.583Z,12.80
2018-04-07T07:58:13.593Z,13.40
2018-04-07T07:59:13.598Z,13.60
2018-04-07T08:00:13.608Z,14.00
2018-04-07T08:01:13.619Z,13.20
2018-04-07T08:02:13.630Z,14.00
2018-04-07T08:03:13.637Z,12.70
2018-04-07T08:04:13.642Z,13.40
2018-04-07T08:05:13.654Z,13.00
2018-04-07T08:06:13.664Z,13.70
2018-04-07T08:07:13.673Z,13.30
2018-04-07T08:08:13.679Z,13.30
2018-04-07T08:09:13.688Z,13.50
2018-04-07T08:10:13.698Z,14.10
2018-04-07T08:11:13.706Z,13.10
2018-04-07T08:12:13.716Z,12.70
2018-04-07T08:13:13.726Z,12.80
2018-04-07T08:14:13.737Z,13.30
2018-04-07T08:15:13.746Z,13.20
2018-04-07T08:16:13.757Z,13.90
2018-04-07T08:17:13.768Z,12.90
2018-04-07T08:18:13.778Z,13.90
2018-04-07T08:19:13.788Z,13.50
2018-04-07T08:20:13.802Z,12.80
2018-04-07T08:21:13.812Z,12.50
2018-04-07T08:22:13.819Z,12.40
2018-04-07T08:23:13.829Z,12.60
2018-04-07T08:24:13.843Z,13.10
2018-04-07T08:25:13.853Z,12.20
2018-04-07T08:26:13.897Z,13.90
2018-04-07T08:27:13.870Z,12.70
2018-04-07T08:28:13.880Z,10.70
2018-04-07T08:29:13.892Z,11.20
2018-04-07T08:30:13.902Z,12.10
2018-04-07T08:31:13.914Z,11.80
2018-04-07T08:32:14.025Z,11.20
2018-04-07T08:33:13.937Z,10.40
2018-04-07T08:34:13.946Z,11.20
2018-04-07T08:35:13.955Z,11.30
2018-04-07T08:36:13.966Z,10.90
2018-04-07T08:37:14.896Z,10.60
2018-04-07T08:38:13.988Z,12.30
2018-04-07T08:39:13.998Z,11.40
2018-04-07T08:40:14.011Z,12.40
2018-04-07T08:41:14.022Z,11.60
2018-04-07T08:42:14.033Z,10.20
2018-04-07T08:43:14.049Z,10.90
2018-04-07T08:44:14.058Z,11.30
2018-04-07T08:45:14.069Z,11.50
2018-04-07T08:46:14.080Z,11.50
2018-04-07T08:47:14.090Z,12.70
2018-04-07T08:48:14.096Z,13.40
2018-04-07T08:49:14.108Z,13.30
2018-04-07T08:50:14.120Z,15.00
2018-04-07T08:51:14.128Z,14.70
2018-04-07T08:52:14.138Z,14.80
2018-04-07T08:53:14.153Z,15.40
2018-04-07T08:54:14.159Z,14.40
2018-04-07T08:55:14.168Z,14.40
2018-04-07T08:56:14.178Z,13.40
2018-04-07T08:57:14.188Z,14.00
2018-04-07T08:58:14.202Z,12.60
2018-04-07T08:59:14.211Z,12.80
2018-04-07T09:00:14.217Z,12.90
2018-04-07T09:01:14.228Z,12.70
2018-04-07T09:02:14.238Z,11.40
2018-04-07T09:03:14.249Z,11.50
2018-04-07T09:04:14.261Z,11.40
2018-04-07T09:05:14.271Z,12.40
2018-04-07T09:06:14.283Z,12.80
2018-04-07T09:07:14.289Z,12.50
2018-04-07T09:08:14.299Z,11.80
2018-04-07T09:09:14.315Z,12.50
2018-04-07T09:10:14.323Z,11.60
2018-04-07T09:11:14.332Z,10.30
2018-04-07T09:12:14.343Z,11.30
2018-04-07T09:13:14.356Z,11.60
2018-04-07T09:14:14.367Z,12.70
2018-04-07T09:15:14.377Z,12.70
2018-04-07T09:16:14.393Z,13.20
2018-04-07T09:17:14.406Z,14.30
2018-04-07T09:18:14.418Z,14.50
2018-04-07T09:19:14.429Z,14.60
2018-04-07T09:20:14.437Z,14.90
2018-04-07T09:21:14.450Z,13.50
2018-04-07T09:22:14.461Z,14.30
2018-04-07T09:23:14.473Z,14.50
2018-04-07T09:24:14.484Z,14.30
2018-04-07T09:25:14.496Z,13.90
2018-04-07T09:26:14.521Z,13.10
2018-04-07T09:27:14.520Z,13.60
2018-04-07T09:28:14.536Z,13.50
2018-04-07T09:29:14.546Z,13.90
2018-04-07T09:30:14.561Z,13.20
2018-04-07T09:31:14.572Z,13.90
2018-04-07T09:32:14.580Z,13.50
2018-04-07T09:33:14.593Z,13.90
2018-04-07T09:34:14.606Z,13.60
2018-04-07T09:35:14.631Z,13.40
2018-04-07T09:36:14.630Z,12.90
2018-04-07T09:37:14.644Z,13.00
2018-04-07T09:38:14.660Z,13.30
2018-04-07T09:39:14.672Z,12.00
2018-04-07T09:40:14.681Z,12.70
2018-04-07T09:41:14.694Z,11.60
2018-04-07T09:42:14.712Z,12.60
2018-04-07T09:43:14.724Z,12.80
2018-04-07T09:44:14.734Z,12.20
2018-04-07T09:45:14.748Z,12.70
2018-04-07T09:46:14.763Z,13.30
2018-04-07T09:47:14.774Z,12.40
2018-04-07T09:48:14.789Z,12.60
2018-04-07T09:49:14.803Z,12.30
2018-04-07T09:50:14.817Z,12.00
2018-04-07T09:51:14.831Z,11.90
2018-04-07T09:52:14.844Z,11.40
2018-04-07T09:53:14.858Z,11.60
2018-04-07T09:54:14.873Z,12.10
2018-04-07T09:55:14.889Z,11.60
2018-04-07T09:56:14.908Z,15.70
2018-04-07T09:57:14.920Z,12.30
2018-04-07T09:58:14.931Z,13.00
2018-04-07T09:59:14.945Z,12.80
2018-04-07T10:00:14.964Z,13.80
2018-04-07T10:01:14.978Z,13.00
2018-04-07T10:02:14.991Z,13.20
2018-04-07T10:03:15.003Z,13.90
2018-04-07T10:04:15.022Z,14.10
2018-04-07T10:05:15.117Z,15.00
2018-04-07T10:06:15.048Z,15.10
2018-04-07T10:07:15.060Z,15.40
2018-04-07T10:08:15.074Z,14.90
2018-04-07T10:09:15.090Z,14.70
2018-04-07T10:10:15.106Z,13.50
2018-04-07T10:11:15.120Z,14.20
2018-04-07T10:12:15.129Z,15.40
2018-04-07T10:13:15.142Z,14.00
2018-04-07T10:14:15.161Z,15.10
2018-04-07T10:15:15.174Z,14.50
2018-04-07T10:16:15.182Z,14.40
2018-04-07T10:17:15.197Z,14.20
2018-04-07T10:18:15.213Z,12.20
2018-04-07T10:19:15.229Z,12.80
2018-04-07T10:20:15.237Z,13.30
2018-04-07T10:21:15.251Z,13.70
2018-04-07T10:22:15.264Z,13.50
2018-04-07T10:23:15.277Z,12.70
2018-04-07T10:24:15.290Z,14.60
2018-04-07T10:25:15.303Z,12.30
2018-04-07T10:26:15.318Z,13.80
2018-04-07T10:27:15.330Z,14.20
2018-04-07T10:28:15.351Z,12.20
2018-04-07T10:29:15.362Z,12.70
2018-04-07T10:30:15.371Z,14.20
2018-04-07T10:31:15.385Z,14.50
2018-04-07T10:32:15.401Z,13.30
2018-04-07T10:33:15.415Z,12.30
2018-04-07T10:34:15.425Z,12.00
2018-04-07T10:35:15.439Z,12.30
2018-04-07T10:36:15.456Z,13.30
2018-04-07T10:37:15.465Z,12.80
2018-04-07T10:38:15.490Z,11.50
2018-04-07T10:39:15.495Z,12.70
2018-04-07T10:40:15.511Z,11.90
2018-04-07T10:41:15.528Z,13.10
2018-04-07T10:42:15.537Z,12.60
2018-04-07T10:43:15.555Z,12.90
2018-04-07T10:44:15.566Z,12.60
2018-04-07T10:45:15.581Z,12.50
2018-04-07T10:46:15.596Z,14.10
2018-04-07T10:47:15.612Z,14.30
2018-04-07T10:48:15.625Z,14.20
2018-04-07T10:49:15.641Z,13.40
2018-04-07T10:50:15.654Z,14.30
2018-04-07T10:51:15.668Z,15.40
2018-04-07T10:52:15.688Z,16.10
2018-04-07T10:53:15.703Z,14.70
2018-04-07T10:54:15.718Z,16.70
2018-04-07T10:55:15.731Z,17.20
2018-04-07T10:56:15.743Z,16.20
2018-04-07T10:57:15.758Z,15.80
2018-04-07T10:58:15.775Z,16.40
2018-04-07T10:59:15.789Z,17.30
2018-04-07T11:00:15.803Z,17.10
2018-04-07T11:01:15.822Z,17.20
2018-04-07T11:02:15.831Z,17.40
2018-04-07T11:03:15.846Z,16.70
2018-04-07T11:04:15.861Z,17.60
2018-04-07T11:05:15.875Z,17.70
2018-04-07T11:06:15.894Z,17.70
2018-04-07T11:07:15.913Z,18.40
2018-04-07T11:08:15.919Z,18.30
2018-04-07T11:09:15.934Z,18.60
2018-04-07T11:10:15.949Z,17.80
2018-04-07T11:11:15.962Z,18.40
2018-04-07T11:12:15.981Z,18.50
2018-04-07T11:13:15.996Z,18.40
2018-04-07T11:14:16.007Z,18.30
2018-04-07T11:15:16.020Z,18.80
2018-04-07T11:16:16.036Z,18.50
2018-04-07T11:17:16.055Z,18.90
2018-04-07T11:18:16.066Z,19.40
2018-04-07T11:19:16.078Z,19.60
2018-04-07T11:20:16.092Z,20.60
2018-04-07T11:21:16.106Z,20.10
2018-04-07T11:22:16.123Z,20.10
2018-04-07T11:23:16.133Z,20.30
2018-04-07T11:24:16.151Z,21.10
2018-04-07T11:25:16.165Z,20.90
2018-04-07T11:26:16.179Z,19.30
2018-04-07T11:27:16.189Z,24.00
2018-04-07T11:28:16.200Z,19.90
2018-04-07T11:29:16.211Z,20.50
2018-04-07T11:30:16.223Z,20.90
2018-04-07T11:31:16.233Z,21.10
2018-04-07T11:32:16.249Z,21.00
2018-04-07T11:33:16.256Z,20.90
2018-04-07T11:34:16.267Z,21.60
2018-04-07T11:35:16.277Z,21.80
2018-04-07T11:36:16.287Z,21.50
2018-04-07T11:37:16.295Z,21.40
2018-04-07T11:38:16.307Z,20.70
2018-04-07T11:39:16.317Z,22.30
2018-04-07T11:40:16.320Z,22.20
2018-04-07T11:41:16.328Z,22.70
2018-04-07T11:42:16.342Z,22.10
2018-04-07T11:43:16.349Z,21.40
2018-04-07T11:44:16.352Z,22.00
2018-04-07T11:45:16.358Z,22.10
2018-04-07T11:46:16.366Z,22.20
2018-04-07T11:47:16.376Z,21.70
2018-04-07T11:48:16.379Z,21.10
2018-04-07T11:49:16.387Z,21.20
2018-04-07T11:50:16.391Z,21.50
2018-04-07T11:51:16.397Z,21.60
2018-04-07T11:52:16.406Z,21.90
2018-04-07T11:53:16.408Z,21.70
2018-04-07T11:54:16.419Z,21.90
2018-04-07T11:55:16.424Z,21.50
2018-04-07T11:56:16.425Z,21.80
2018-04-07T11:57:16.434Z,21.50
2018-04-07T11:58:16.437Z,21.70
2018-04-07T11:59:16.441Z,21.40
2018-04-07T12:00:16.451Z,21.10
2018-04-07T12:01:16.456Z,21.00
2018-04-07T12:02:16.488Z,21.40
2018-04-07T12:03:16.464Z,20.40
2018-04-07T12:04:16.466Z,20.90
2018-04-07T12:05:16.472Z,21.00
2018-04-07T12:06:16.476Z,21.60
2018-04-07T12:07:16.480Z,20.60
2018-04-07T12:08:16.485Z,20.40
2018-04-07T12:09:16.490Z,19.30
2018-04-07T12:10:16.494Z,20.00
2018-04-07T12:11:16.499Z,19.50
2018-04-07T12:12:16.508Z,21.00
2018-04-07T12:13:16.512Z,20.20
2018-04-07T12:14:16.518Z,20.50
2018-04-07T12:15:16.520Z,20.70
2018-04-07T12:16:16.521Z,21.60
2018-04-07T12:17:16.526Z,21.20
2018-04-07T12:18:16.530Z,20.70
2018-04-07T12:19:16.533Z,19.90
2018-04-07T12:20:16.539Z,21.20
2018-04-07T12:21:16.543Z,26.30
2018-04-07T12:22:16.546Z,20.30
2018-04-07T12:23:16.550Z,19.20
2018-04-07T12:24:16.555Z,20.10
2018-04-07T12:25:16.560Z,20.00
2018-04-07T12:26:16.567Z,19.70
2018-04-07T12:27:16.571Z,20.30
2018-04-07T12:28:16.572Z,20.60
2018-04-07T12:29:16.586Z,19.20
2018-04-07T12:30:16.580Z,19.70
2018-04-07T12:31:16.583Z,20.20
2018-04-07T12:32:16.593Z,19.00
2018-04-07T12:33:16.595Z,19.10
2018-04-07T12:34:16.596Z,17.90
2018-04-07T12:35:16.599Z,18.80
2018-04-07T12:36:16.605Z,19.20
2018-04-07T12:37:16.608Z,19.00
2018-04-07T12:38:16.611Z,20.60
2018-04-07T12:39:16.615Z,19.30
2018-04-07T12:40:16.618Z,20.10
2018-04-07T12:41:16.626Z,20.10
2018-04-07T12:42:16.625Z,19.00
2018-04-07T12:43:16.629Z,18.70
2018-04-07T12:44:16.636Z,19.00
2018-04-07T12:45:16.641Z,20.80
2018-04-07T12:46:16.640Z,19.50
2018-04-07T12:47:16.643Z,19.60
2018-04-07T12:48:16.646Z,19.90
2018-04-07T12:49:16.650Z,17.90
2018-04-07T12:50:16.653Z,19.30
2018-04-07T12:51:16.729Z,18.70
2018-04-07T12:52:16.664Z,19.60